Time,TemperatureF,DewpointF,PressureIn,WindDirection,WindDirectionDegrees,WindSpeedMPH,WindSpeedGustMPH,Humidity,HourlyPrecipIn,Conditions,Clouds,dailyrainin,SolarRadiationWatts/m^2,SoftwareType,DateUTC
2013-03-30 00:00:00,59.5,54.7,29.94,ENE,69,0.0,0.0,84,0.00,,---,0.00,0.00,VWS V14.01,2013-03-30 05:00:00,
2013-03-30 00:05:00,59.5,54.7,29.94,ENE,69,0.0,0.0,84,0.00,,---,0.00,0.00,VWS V14.01,2013-03-30 05:05:00,
2013-03-30 00:10:00,59.5,54.7,29.94,ENE,69,0.0,0.0,84,0.00,,---,0.00,0.00,VWS V14.01,2013-03-30 05:10:00,
2013-03-30 00:15:00,59.3,54.5,29.94,ENE,69,0.0,0.0,84,0.00,,---,0.00,0.00,VWS V14.01,2013-03-30 05:15:00,
2013-03-30 00:20:00,59.3,54.5,29.94,ENE,69,0.0,0.0,84,0.00,,---,0.00,0.00,VWS V14.01,2013-03-30 05:20:00,
2013-03-30 00:25:00,59.3,54.5,29.93,ENE,69,0.0,0.0,84,0.00,,---,0.00,0.00,VWS V14.01,2013-03-30 05:25:00,
2013-03-30 00:30:00,59.3,54.5,29.94,ENE,69,0.0,0.0,84,0.00,,---,0.00,0.00,VWS V14.01,2013-03-30 05:30:00,
2013-03-30 00:35:00,59.3,54.5,29.93,ENE,69,0.0,0.0,84,0.00,,---,0.00,0.00,VWS V14.01,2013-03-30 05:35:00,
2013-03-30 00:40:00,59.3,54.2,29.93,ENE,69,0.0,0.0,83,0.00,,---,0.00,0.00,VWS V14.01,2013-03-30 05:40:00,
2013-03-30 00:45:00,59.4,54.2,29.92,ENE,69,0.0,0.0,83,0.00,,---,0.00,0.00,VWS V14.01,2013-03-30 05:45:00,
2013-03-30 00:50:00,59.5,54.0,29.93,ENE,69,0.0,0.0,82,0.00,,---,0.00,0.00,VWS V14.01,2013-03-30 05:50:00,
2013-03-30 00:55:00,59.5,54.0,29.93,ENE,69,0.0,0.0,82,0.00,,---,0.00,0.00,VWS V14.01,2013-03-30 05:55:00,
2013-03-30 01:00:00,59.5,53.7,29.93,ENE,69,0.0,0.0,81,0.00,,---,0.00,0.00,VWS V14.01,2013-03-30 06:00:00,
2013-03-30 01:05:00,59.5,53.7,29.92,ENE,69,0.0,0.0,81,0.00,,---,0.00,0.00,VWS V14.01,2013-03-30 06:05:00,
2013-03-30 01:10:00,59.5,53.3,29.92,ENE,69,0.0,0.0,80,0.00,,---,0.00,0.00,VWS V14.01,2013-03-30 06:10:00,
2013-03-30 01:15:00,59.3,53.1,29.93,ENE,69,0.0,0.0,80,0.00,,---,0.00,0.00,VWS V14.01,2013-03-30 06:15:00,
2013-03-30 01:20:00,59.1,52.9,29.93,ENE,69,0.0,0.0,80,0.00,,---,0.00,0.00,VWS V14.01,2013-03-30 06:20:00,
2013-03-30 01:25:00,59.1,52.9,29.93,ENE,69,0.0,0.0,80,0.00,,---,0.00,0.00,VWS V14.01,2013-03-30 06:25:00,
2013-03-30 01:30:00,59.0,52.8,29.93,ENE,69,0.0,0.0,80,0.00,,---,0.00,0.00,VWS V14.01,2013-03-30 06:30:00,
2013-03-30 01:35:00,58.8,52.7,29.93,ENE,69,0.0,0.0,80,0.00,,---,0.00,0.00,VWS V14.01,2013-03-30 06:35:00,
2013-03-30 01:40:00,58.7,52.6,29.94,ENE,69,0.0,0.0,80,0.00,,---,0.00,0.00,VWS V14.01,2013-03-30 06:40:00,
2013-03-30 01:45:00,58.6,52.5,29.94,ENE,69,0.0,0.0,80,0.00,,---,0.00,0.00,VWS V14.01,2013-03-30 06:45:00,
2013-03-30 01:50:00,58.4,52.3,29.94,ENE,69,0.0,0.0,80,0.00,,---,0.00,0.00,VWS V14.01,2013-03-30 06:50:00,
2013-03-30 01:55:00,58.3,52.2,29.94,ENE,69,0.0,0.0,80,0.00,,---,0.00,0.00,VWS V14.01,2013-03-30 06:55:00,
2013-03-30 02:00:00,58.2,52.1,29.94,ENE,69,0.0,0.0,80,0.00,,---,0.00,0.00,VWS V14.01,2013-03-30 07:00:00,
2013-03-30 02:05:00,58.0,51.9,29.94,ENE,69,0.0,0.0,80,0.00,,---,0.00,0.00,VWS V14.01,2013-03-30 07:05:00,
2013-03-30 02:10:00,57.8,51.7,29.94,ENE,69,0.0,0.0,80,0.00,,---,0.00,0.00,VWS V14.01,2013-03-30 07:10:00,
2013-03-30 02:15:00,57.6,51.5,29.94,ENE,69,0.0,0.0,80,0.00,,---,0.00,0.00,VWS V14.01,2013-03-30 07:15:00,
2013-03-30 02:20:00,57.2,50.8,29.93,ENE,69,0.0,0.0,79,0.00,,---,0.00,0.00,VWS V14.01,2013-03-30 07:20:00,
2013-03-30 02:25:00,56.8,50.4,29.93,ENE,69,0.0,0.0,79,0.00,,---,0.00,0.00,VWS V14.01,2013-03-30 07:25:00,
2013-03-30 02:30:00,56.2,49.8,29.93,ENE,69,0.0,0.0,79,0.00,,---,0.00,0.00,VWS V14.01,2013-03-30 07:30:00,
2013-03-30 02:35:00,55.8,49.4,29.93,ENE,69,0.0,0.0,79,0.00,,---,0.00,0.00,VWS V14.01,2013-03-30 07:35:00,
2013-03-30 02:40:00,55.5,49.4,29.93,ENE,69,0.0,0.0,80,0.00,,---,0.00,0.00,VWS V14.01,2013-03-30 07:40:00,
2013-03-30 02:45:00,55.2,49.5,29.92,ENE,69,0.0,0.0,81,0.00,,---,0.00,0.00,VWS V14.01,2013-03-30 07:45:00,
2013-03-30 02:50:00,54.7,49.0,29.92,ENE,69,0.0,0.0,81,0.00,,---,0.00,0.00,VWS V14.01,2013-03-30 07:50:00,
2013-03-30 02:55:00,54.5,49.5,29.92,ENE,69,0.0,0.0,83,0.00,,---,0.00,0.00,VWS V14.01,2013-03-30 07:55:00,
2013-03-30 03:00:00,54.5,49.5,29.93,ENE,69,0.0,0.0,83,0.00,,---,0.00,0.00,VWS V14.01,2013-03-30 08:00:00,
2013-03-30 03:05:00,54.4,49.7,29.93,ENE,69,0.0,0.0,84,0.00,,---,0.00,0.00,VWS V14.01,2013-03-30 08:05:00,
2013-03-30 03:10:00,54.4,49.7,29.93,ENE,69,0.0,0.0,84,0.00,,---,0.00,0.00,VWS V14.01,2013-03-30 08:10:00,
2013-03-30 03:15:00,54.4,49.7,29.93,ENE,69,0.0,0.0,84,0.00,,---,0.00,0.00,VWS V14.01,2013-03-30 08:15:00,
2013-03-30 03:20:00,54.4,49.7,29.93,ENE,69,0.0,0.0,84,0.00,,---,0.00,0.00,VWS V14.01,2013-03-30 08:20:00,
2013-03-30 03:25:00,54.4,49.7,29.93,ENE,69,0.0,0.0,84,0.00,,---,0.00,0.00,VWS V14.01,2013-03-30 08:25:00,
2013-03-30 03:30:00,54.2,49.5,29.93,ENE,69,0.0,0.0,84,0.00,,---,0.00,0.00,VWS V14.01,2013-03-30 08:30:00,
2013-03-30 03:35:00,54.1,49.7,29.93,ENE,69,0.0,0.0,85,0.00,,---,0.00,0.00,VWS V14.01,2013-03-30 08:35:00,
2013-03-30 03:40:00,54.0,49.6,29.93,ENE,69,0.0,0.0,85,0.00,,---,0.00,0.00,VWS V14.01,2013-03-30 08:40:00,
2013-03-30 03:45:00,54.1,49.7,29.93,ENE,69,0.0,0.0,85,0.00,,---,0.00,0.00,VWS V14.01,2013-03-30 08:45:00,
2013-03-30 03:50:00,54.0,49.6,29.93,ENE,69,0.0,0.0,85,0.00,,---,0.00,0.00,VWS V14.01,2013-03-30 08:50:00,
2013-03-30 03:55:00,53.9,49.5,29.93,ENE,69,0.0,0.0,85,0.00,,---,0.00,0.00,VWS V14.01,2013-03-30 08:55:00,
2013-03-30 04:00:00,53.6,49.2,29.93,ENE,69,0.0,0.0,85,0.00,,---,0.00,0.00,VWS V14.01,2013-03-30 09:00:00,
2013-03-30 04:05:00,53.6,49.5,29.93,ENE,69,0.0,0.0,86,0.00,,---,0.00,0.00,VWS V14.01,2013-03-30 09:05:00,
2013-03-30 04:10:00,53.6,49.5,29.93,ENE,69,0.0,0.0,86,0.00,,---,0.00,0.00,VWS V14.01,2013-03-30 09:10:00,
2013-03-30 04:15:00,53.8,50.0,29.94,ENE,69,0.0,0.0,87,0.00,,---,0.00,0.00,VWS V14.01,2013-03-30 09:15:00,
2013-03-30 04:20:00,54.2,50.4,29.94,ENE,69,0.0,0.0,87,0.00,,---,0.00,0.00,VWS V14.01,2013-03-30 09:20:00,
2013-03-30 04:25:00,54.4,50.6,29.94,ENE,69,0.0,0.0,87,0.00,,---,0.00,0.00,VWS V14.01,2013-03-30 09:25:00,
2013-03-30 04:30:00,54.3,50.5,29.94,ENE,69,0.0,0.0,87,0.00,,---,0.00,0.00,VWS V14.01,2013-03-30 09:30:00,
2013-03-30 04:34:00,54.1,50.3,29.94,ENE,69,0.0,0.0,87,0.00,,---,0.00,0.00,VWS V14.01,2013-03-30 09:34:00,
2013-03-30 04:39:00,53.9,50.1,29.94,ENE,69,0.0,0.0,87,0.00,,---,0.00,0.00,VWS V14.01,2013-03-30 09:39:00,
2013-03-30 04:44:00,53.7,49.9,29.94,ENE,69,0.0,0.0,87,0.00,,---,0.00,0.00,VWS V14.01,2013-03-30 09:44:00,
2013-03-30 04:49:00,53.6,49.8,29.94,ENE,69,0.0,0.0,87,0.00,,---,0.00,0.00,VWS V14.01,2013-03-30 09:49:00,
2013-03-30 04:54:00,53.4,49.6,29.94,ENE,69,0.0,0.0,87,0.00,,---,0.00,0.00,VWS V14.01,2013-03-30 09:54:00,
2013-03-30 04:59:00,53.2,49.4,29.94,ENE,69,0.0,0.0,87,0.00,,---,0.00,0.00,VWS V14.01,2013-03-30 09:59:00,
2013-03-30 05:04:00,53.1,49.3,29.94,ENE,69,0.0,0.0,87,0.00,,---,0.00,0.00,VWS V14.01,2013-03-30 10:04:00,
2013-03-30 05:09:00,52.9,49.1,29.94,ENE,69,0.0,0.0,87,0.00,,---,0.00,0.00,VWS V14.01,2013-03-30 10:09:00,
2013-03-30 05:14:00,52.8,49.3,29.94,ENE,69,0.0,0.0,88,0.00,,---,0.00,0.00,VWS V14.01,2013-03-30 10:14:00,
2013-03-30 05:19:00,52.9,49.5,29.93,ENE,69,0.0,0.0,88,0.00,,---,0.00,0.00,VWS V14.01,2013-03-30 10:19:00,
2013-03-30 05:24:00,53.1,49.7,29.93,ENE,69,0.0,0.0,88,0.00,,---,0.00,0.00,VWS V14.01,2013-03-30 10:24:00,
2013-03-30 05:29:00,53.1,49.7,29.93,ENE,69,0.0,0.0,88,0.00,,---,0.00,0.00,VWS V14.01,2013-03-30 10:29:00,
2013-03-30 05:34:00,53.2,49.7,29.93,ENE,69,0.0,0.0,88,0.00,,---,0.00,0.00,VWS V14.01,2013-03-30 10:34:00,
2013-03-30 05:39:00,53.3,49.8,29.93,ENE,69,0.0,0.0,88,0.00,,---,0.00,0.00,VWS V14.01,2013-03-30 10:39:00,
2013-03-30 05:44:00,53.5,50.0,29.93,ENE,69,0.0,0.0,88,0.00,,---,0.00,0.00,VWS V14.01,2013-03-30 10:44:00,
2013-03-30 05:49:00,53.5,50.0,29.93,ENE,69,0.0,0.0,88,0.00,,---,0.00,0.00,VWS V14.01,2013-03-30 10:49:00,
2013-03-30 05:54:00,53.6,50.1,29.94,ENE,69,0.0,0.0,88,0.00,,---,0.00,0.00,VWS V14.01,2013-03-30 10:54:00,
2013-03-30 05:59:00,53.6,50.1,29.94,ENE,69,0.0,0.0,88,0.00,,---,0.00,0.00,VWS V14.01,2013-03-30 10:59:00,
2013-03-30 06:04:00,53.7,50.2,29.94,ENE,69,0.0,0.0,88,0.00,,---,0.00,0.00,VWS V14.01,2013-03-30 11:04:00,
2013-03-30 06:09:00,53.7,50.2,29.94,ENE,69,0.0,0.0,88,0.00,,---,0.00,0.00,VWS V14.01,2013-03-30 11:09:00,
2013-03-30 06:14:00,53.7,50.5,29.94,ENE,69,0.0,0.0,89,0.00,,---,0.00,0.00,VWS V14.01,2013-03-30 11:14:00,
2013-03-30 06:19:00,53.7,50.5,29.94,ENE,69,0.0,0.0,89,0.00,,---,0.00,0.00,VWS V14.01,2013-03-30 11:19:00,
2013-03-30 06:24:00,53.8,50.3,29.94,ENE,69,0.0,0.0,88,0.00,,---,0.00,0.00,VWS V14.01,2013-03-30 11:24:00,
2013-03-30 06:29:00,53.8,50.6,29.94,ENE,69,0.0,0.0,89,0.00,,---,0.00,0.00,VWS V14.01,2013-03-30 11:29:00,
2013-03-30 06:34:00,53.9,50.7,29.94,ENE,69,0.0,0.0,89,0.00,,---,0.00,0.00,VWS V14.01,2013-03-30 11:34:00,
2013-03-30 06:39:00,53.9,50.7,29.94,ENE,69,0.0,0.0,89,0.00,,---,0.00,0.00,VWS V14.01,2013-03-30 11:39:00,
2013-03-30 06:44:00,53.8,50.6,29.94,ENE,69,0.0,0.0,89,0.00,,---,0.00,0.00,VWS V14.01,2013-03-30 11:44:00,
2013-03-30 06:49:00,53.7,50.5,29.95,ENE,69,0.0,0.0,89,0.00,,---,0.00,0.00,VWS V14.01,2013-03-30 11:49:00,
2013-03-30 06:54:00,53.6,50.4,29.95,ENE,69,0.0,0.0,89,0.00,,---,0.00,0.00,VWS V14.01,2013-03-30 11:54:00,
2013-03-30 06:59:00,53.5,50.3,29.95,ENE,69,0.0,0.0,89,0.00,,---,0.00,0.00,VWS V14.01,2013-03-30 11:59:00,
2013-03-30 07:04:00,53.5,50.3,29.95,ENE,69,0.0,0.0,89,0.00,,---,0.00,0.00,VWS V14.01,2013-03-30 12:04:00,
2013-03-30 07:09:00,53.5,50.3,29.95,ENE,69,0.0,0.0,89,0.00,,---,0.00,0.00,VWS V14.01,2013-03-30 12:09:00,
2013-03-30 07:14:00,53.5,50.3,29.95,ENE,69,0.0,0.0,89,0.00,,---,0.00,0.00,VWS V14.01,2013-03-30 12:14:00,
2013-03-30 07:19:00,53.4,50.2,29.95,ENE,69,0.0,0.0,89,0.00,,---,0.00,0.00,VWS V14.01,2013-03-30 12:19:00,
2013-03-30 07:24:00,53.2,50.0,29.94,ENE,69,0.0,0.0,89,0.00,,---,0.00,0.00,VWS V14.01,2013-03-30 12:24:00,
2013-03-30 07:29:00,53.1,50.0,29.94,ENE,69,0.0,0.0,89,0.00,,---,0.00,5.00,VWS V14.01,2013-03-30 12:29:00,
2013-03-30 07:34:00,53.0,49.8,29.94,ENE,69,0.0,0.0,89,0.00,,---,0.00,9.00,VWS V14.01,2013-03-30 12:34:00,
2013-03-30 07:39:00,52.8,49.7,29.94,ENE,69,0.0,0.0,89,0.00,,---,0.00,12.00,VWS V14.01,2013-03-30 12:39:00,
2013-03-30 07:44:00,52.6,49.5,29.94,ENE,69,0.0,0.0,89,0.00,,---,0.00,18.00,VWS V14.01,2013-03-30 12:44:00,
2013-03-30 07:49:00,52.3,48.9,29.94,ENE,69,0.0,0.0,88,0.00,,---,0.00,23.00,VWS V14.01,2013-03-30 12:49:00,
2013-03-30 07:54:00,52.1,49.0,29.94,ENE,69,0.0,0.0,89,0.00,,---,0.00,30.00,VWS V14.01,2013-03-30 12:54:00,
2013-03-30 07:59:00,51.9,48.8,29.94,ENE,69,0.0,0.0,89,0.00,,---,0.00,39.00,VWS V14.01,2013-03-30 12:59:00,
2013-03-30 08:04:00,51.7,48.6,29.95,ENE,69,0.0,0.0,89,0.00,,---,0.00,51.00,VWS V14.01,2013-03-30 13:04:00,
2013-03-30 08:09:00,51.6,48.5,29.95,ENE,69,0.0,0.0,89,0.00,,---,0.00,58.00,VWS V14.01,2013-03-30 13:09:00,
2013-03-30 08:14:00,51.5,48.4,29.95,ENE,69,0.0,0.0,89,0.00,,---,0.00,74.00,VWS V14.01,2013-03-30 13:14:00,
2013-03-30 08:19:00,51.4,48.3,29.95,ENE,69,0.0,0.0,89,0.00,,---,0.00,91.00,VWS V14.01,2013-03-30 13:19:00,
2013-03-30 08:24:00,51.8,49.0,29.95,ENE,69,0.0,0.0,90,0.00,,---,0.00,109.00,VWS V14.01,2013-03-30 13:24:00,
2013-03-30 08:29:00,52.3,49.5,29.94,ENE,69,0.0,0.0,90,0.00,,---,0.00,125.00,VWS V14.01,2013-03-30 13:29:00,
2013-03-30 08:34:00,52.7,49.8,29.94,ENE,69,0.0,0.0,90,0.00,,---,0.00,146.00,VWS V14.01,2013-03-30 13:34:00,
2013-03-30 08:39:00,53.9,51.3,29.94,ENE,69,0.0,0.0,91,0.00,,---,0.00,163.00,VWS V14.01,2013-03-30 13:39:00,
2013-03-30 08:44:00,55.2,52.6,29.93,ENE,69,0.0,0.0,91,0.00,,---,0.00,183.00,VWS V14.01,2013-03-30 13:44:00,
2013-03-30 08:49:00,56.3,53.7,29.93,ENE,69,0.0,0.0,91,0.00,,---,0.00,202.00,VWS V14.01,2013-03-30 13:49:00,
2013-03-30 08:54:00,57.4,54.8,29.93,ENE,69,0.0,0.0,91,0.00,,---,0.00,223.00,VWS V14.01,2013-03-30 13:54:00,
2013-03-30 08:59:00,58.4,55.8,29.93,ENE,69,0.0,0.0,91,0.00,,---,0.00,243.00,VWS V14.01,2013-03-30 13:59:00,
2013-03-30 09:04:00,59.3,56.4,29.93,SSE,154,8.0,8.0,90,0.00,,---,0.00,258.00,VWS V14.01,2013-03-30 14:04:00,
2013-03-30 09:09:00,60.0,56.8,29.93,SSE,149,3.0,9.0,89,0.00,,---,0.00,278.00,VWS V14.01,2013-03-30 14:09:00,
2013-03-30 09:14:00,60.7,57.1,29.93,SSE,161,3.0,9.0,88,0.00,,---,0.00,295.00,VWS V14.01,2013-03-30 14:14:00,
2013-03-30 09:19:00,61.4,57.2,29.93,SE,142,8.0,10.0,86,0.00,,---,0.00,316.00,VWS V14.01,2013-03-30 14:19:00,
2013-03-30 09:24:00,61.9,57.3,29.93,SSW,198,1.0,10.0,85,0.00,,---,0.00,334.00,VWS V14.01,2013-03-30 14:24:00,
2013-03-30 09:29:00,62.5,57.3,29.93,SSE,155,4.0,10.0,83,0.00,,---,0.00,352.00,VWS V14.01,2013-03-30 14:29:00,
2013-03-30 09:34:00,63.2,57.6,29.93,South,173,4.0,7.0,82,0.00,,---,0.00,371.00,VWS V14.01,2013-03-30 14:34:00,
2013-03-30 09:39:00,63.7,57.8,29.93,South,180,5.0,8.0,81,0.00,,---,0.00,385.00,VWS V14.01,2013-03-30 14:39:00,
2013-03-30 09:44:00,64.3,58.0,29.93,South,183,4.0,11.0,80,0.00,,---,0.00,403.00,VWS V14.01,2013-03-30 14:44:00,
2013-03-30 09:49:00,65.0,58.0,29.93,South,178,5.0,11.0,78,0.00,,---,0.00,422.00,VWS V14.01,2013-03-30 14:49:00,
2013-03-30 09:54:00,65.8,58.4,29.93,South,175,3.0,11.0,77,0.00,,---,0.00,438.00,VWS V14.01,2013-03-30 14:54:00,
2013-03-30 09:59:00,66.6,58.4,29.93,SSW,207,7.0,11.0,75,0.00,,---,0.00,455.00,VWS V14.01,2013-03-30 14:59:00,
2013-03-30 10:04:00,67.2,58.6,29.93,SSW,200,5.0,9.0,74,0.00,,---,0.00,473.00,VWS V14.01,2013-03-30 15:04:00,
2013-03-30 10:09:00,67.6,58.7,29.93,SSW,206,3.0,9.0,73,0.00,,---,0.00,489.00,VWS V14.01,2013-03-30 15:09:00,
2013-03-30 10:14:00,68.0,58.3,29.94,SW,222,8.0,10.0,71,0.00,,---,0.00,501.00,VWS V14.01,2013-03-30 15:14:00,
2013-03-30 10:19:00,67.9,58.5,29.93,SW,222,5.0,12.0,72,0.00,,---,0.00,519.00,VWS V14.01,2013-03-30 15:19:00,
2013-03-30 10:24:00,68.5,58.7,29.93,SSW,201,6.0,12.0,71,0.00,,---,0.00,536.00,VWS V14.01,2013-03-30 15:24:00,
2013-03-30 10:29:00,68.6,58.4,29.93,SSW,196,6.0,12.0,70,0.00,,---,0.00,555.00,VWS V14.01,2013-03-30 15:29:00,
2013-03-30 10:34:00,68.9,58.7,29.93,South,187,7.0,9.0,70,0.00,,---,0.00,568.00,VWS V14.01,2013-03-30 15:34:00,
2013-03-30 10:39:00,69.0,58.4,29.93,SW,221,3.0,14.0,69,0.00,,---,0.00,585.00,VWS V14.01,2013-03-30 15:39:00,
2013-03-30 10:44:00,69.1,58.5,29.93,SSW,196,4.0,14.0,69,0.00,,---,0.00,596.00,VWS V14.01,2013-03-30 15:44:00,
2013-03-30 10:49:00,69.8,59.2,29.92,SSW,196,0.0,14.0,69,0.00,,---,0.00,613.00,VWS V14.01,2013-03-30 15:49:00,
2013-03-30 10:54:00,69.5,58.5,29.92,South,186,3.0,14.0,68,0.00,,---,0.00,629.00,VWS V14.01,2013-03-30 15:54:00,
2013-03-30 10:59:00,69.4,58.8,29.92,SW,227,3.0,14.0,69,0.00,,---,0.00,643.00,VWS V14.01,2013-03-30 15:59:00,
2013-03-30 11:04:00,70.1,59.1,29.93,SW,217,2.0,6.0,68,0.00,,---,0.00,657.00,VWS V14.01,2013-03-30 16:04:00,
2013-03-30 11:09:00,70.2,59.2,29.93,SSW,196,0.0,10.0,68,0.00,,---,0.00,670.00,VWS V14.01,2013-03-30 16:09:00,
2013-03-30 11:14:00,71.0,59.5,29.93,SSW,213,7.0,10.0,67,0.00,,---,0.00,686.00,VWS V14.01,2013-03-30 16:14:00,
2013-03-30 11:19:00,70.7,59.2,29.92,WSW,244,5.0,10.0,67,0.00,,---,0.00,694.00,VWS V14.01,2013-03-30 16:19:00,
2013-03-30 11:24:00,70.6,58.7,29.92,WSW,238,0.0,10.0,66,0.00,,---,0.00,708.00,VWS V14.01,2013-03-30 16:24:00,
2013-03-30 11:29:00,71.3,58.9,29.92,SW,229,7.0,11.0,65,0.00,,---,0.00,721.00,VWS V14.01,2013-03-30 16:29:00,
2013-03-30 11:34:00,71.6,59.2,29.92,South,191,0.0,7.0,65,0.00,,---,0.00,733.00,VWS V14.01,2013-03-30 16:34:00,
2013-03-30 11:39:00,72.4,59.1,29.92,SSE,166,4.0,7.0,63,0.00,,---,0.00,747.00,VWS V14.01,2013-03-30 16:39:00,
2013-03-30 11:44:00,72.9,60.0,29.92,South,186,2.0,8.0,64,0.00,,---,0.00,758.00,VWS V14.01,2013-03-30 16:44:00,
2013-03-30 11:49:00,72.9,60.0,29.92,South,186,0.0,8.0,64,0.00,,---,0.00,765.00,VWS V14.01,2013-03-30 16:49:00,
2013-03-30 11:54:00,73.5,59.2,29.92,SSW,207,0.0,10.0,61,0.00,,---,0.00,775.00,VWS V14.01,2013-03-30 16:54:00,
2013-03-30 11:59:00,73.3,59.0,29.92,SSW,192,3.0,10.0,61,0.00,,---,0.00,791.00,VWS V14.01,2013-03-30 16:59:00,
2013-03-30 12:04:00,74.1,59.3,29.91,SSW,200,4.0,5.0,60,0.00,,---,0.00,796.00,VWS V14.01,2013-03-30 17:04:00,
2013-03-30 12:09:00,73.9,58.7,29.91,SW,218,0.0,8.0,59,0.00,,---,0.00,805.00,VWS V14.01,2013-03-30 17:09:00,
2013-03-30 12:14:00,73.9,59.2,29.91,SSW,200,3.0,8.0,60,0.00,,---,0.00,814.00,VWS V14.01,2013-03-30 17:14:00,
2013-03-30 12:19:00,74.7,59.4,29.91,SSW,205,5.0,8.0,59,0.00,,---,0.00,826.00,VWS V14.01,2013-03-30 17:19:00,
2013-03-30 12:24:00,74.4,58.2,29.91,SW,214,3.0,8.0,57,0.00,,---,0.00,831.00,VWS V14.01,2013-03-30 17:24:00,
2013-03-30 12:29:00,75.5,59.2,29.91,SW,214,0.0,8.0,57,0.00,,---,0.00,840.00,VWS V14.01,2013-03-30 17:29:00,
2013-03-30 12:34:00,77.7,59.8,29.91,SSW,209,4.0,4.0,54,0.00,,---,0.00,846.00,VWS V14.01,2013-03-30 17:34:00,
2013-03-30 12:39:00,77.3,58.3,29.91,North,5,7.0,7.0,52,0.00,,---,0.00,860.00,VWS V14.01,2013-03-30 17:39:00,
2013-03-30 12:44:00,77.9,58.3,29.90,NNE,17,0.0,7.0,51,0.00,,---,0.00,865.00,VWS V14.01,2013-03-30 17:44:00,
2013-03-30 12:49:00,77.4,58.4,29.90,NE,40,7.0,9.0,52,0.00,,---,0.00,865.00,VWS V14.01,2013-03-30 17:49:00,
2013-03-30 12:54:00,77.7,58.7,29.90,NE,38,0.0,9.0,52,0.00,,---,0.00,868.00,VWS V14.01,2013-03-30 17:54:00,
2013-03-30 12:59:00,77.5,58.5,29.90,NNE,32,1.0,9.0,52,0.00,,---,0.00,872.00,VWS V14.01,2013-03-30 17:59:00,
2013-03-30 13:04:00,77.6,59.1,29.90,NNW,342,8.0,9.0,53,0.00,,---,0.00,875.00,VWS V14.01,2013-03-30 18:04:00,
2013-03-30 13:09:00,78.1,58.5,29.90,NE,34,3.0,11.0,51,0.00,,---,0.00,879.00,VWS V14.01,2013-03-30 18:09:00,
2013-03-30 13:14:00,77.6,58.6,29.89,North,355,5.0,11.0,52,0.00,,---,0.00,879.00,VWS V14.01,2013-03-30 18:14:00,
2013-03-30 13:19:00,77.8,58.8,29.89,NW,315,4.0,11.0,52,0.00,,---,0.00,888.00,VWS V14.01,2013-03-30 18:19:00,
2013-03-30 13:24:00,79.1,58.9,29.89,NNW,339,7.0,12.0,50,0.00,,---,0.00,893.00,VWS V14.01,2013-03-30 18:24:00,
2013-03-30 13:29:00,78.7,58.5,29.89,NNE,25,1.0,12.0,50,0.00,,---,0.00,898.00,VWS V14.01,2013-03-30 18:29:00,
2013-03-30 13:34:00,78.7,59.1,29.89,NNE,33,6.0,7.0,51,0.00,,---,0.00,895.00,VWS V14.01,2013-03-30 18:34:00,
2013-03-30 13:39:00,79.8,59.5,29.88,North,355,11.0,12.0,50,0.00,,---,0.00,898.00,VWS V14.01,2013-03-30 18:39:00,
2013-03-30 13:44:00,79.0,58.8,29.88,NNW,347,5.0,12.0,50,0.00,,---,0.00,900.00,VWS V14.01,2013-03-30 18:44:00,
2013-03-30 13:49:00,78.8,58.6,29.88,North,350,6.0,12.0,50,0.00,,---,0.00,893.00,VWS V14.01,2013-03-30 18:49:00,
2013-03-30 13:54:00,79.3,59.6,29.87,NW,320,8.0,12.0,51,0.00,,---,0.00,889.00,VWS V14.01,2013-03-30 18:54:00,
2013-03-30 13:59:00,79.9,59.0,29.86,NE,55,8.0,12.0,49,0.00,,---,0.00,893.00,VWS V14.01,2013-03-30 18:59:00,
2013-03-30 14:04:00,79.6,58.8,29.86,NNE,21,0.0,8.0,49,0.00,,---,0.00,891.00,VWS V14.01,2013-03-30 19:04:00,
2013-03-30 14:09:00,80.3,59.4,29.86,NE,53,9.0,15.0,49,0.00,,---,0.00,882.00,VWS V14.01,2013-03-30 19:09:00,
2013-03-30 14:14:00,79.6,59.3,29.85,North,355,5.0,15.0,50,0.00,,---,0.00,886.00,VWS V14.01,2013-03-30 19:14:00,
2013-03-30 14:19:00,79.8,59.0,29.85,NE,34,6.0,15.0,49,0.00,,---,0.00,884.00,VWS V14.01,2013-03-30 19:19:00,
2013-03-30 14:24:00,80.0,59.7,29.85,NNE,33,0.0,15.0,50,0.00,,---,0.00,879.00,VWS V14.01,2013-03-30 19:24:00,
2013-03-30 14:29:00,80.6,59.7,29.85,ENE,59,10.0,15.0,49,0.00,,---,0.00,874.00,VWS V14.01,2013-03-30 19:29:00,
2013-03-30 14:34:00,80.3,58.8,29.84,NNE,26,5.0,13.0,48,0.00,,---,0.00,870.00,VWS V14.01,2013-03-30 19:34:00,
2013-03-30 14:39:00,80.5,59.0,29.84,NE,37,11.0,14.0,48,0.00,,---,0.00,872.00,VWS V14.01,2013-03-30 19:39:00,
2013-03-30 14:44:00,80.1,58.7,29.84,NE,43,5.0,14.0,48,0.00,,---,0.00,858.00,VWS V14.01,2013-03-30 19:44:00,
2013-03-30 14:49:00,80.3,58.2,29.84,ENE,71,8.0,14.0,47,0.00,,---,0.00,858.00,VWS V14.01,2013-03-30 19:49:00,
2013-03-30 14:54:00,80.4,58.9,29.84,East,82,3.0,14.0,48,0.00,,---,0.00,854.00,VWS V14.01,2013-03-30 19:54:00,
2013-03-30 14:59:00,80.5,59.0,29.83,ENE,75,2.0,14.0,48,0.00,,---,0.00,849.00,VWS V14.01,2013-03-30 19:59:00,
2013-03-30 15:04:00,81.5,58.8,29.83,NE,55,9.0,9.0,46,0.00,,---,0.00,830.00,VWS V14.01,2013-03-30 20:04:00,
2013-03-30 15:09:00,81.6,59.4,29.83,NNE,25,4.0,10.0,47,0.00,,---,0.00,830.00,VWS V14.01,2013-03-30 20:09:00,
2013-03-30 15:14:00,81.1,59.0,29.83,ENE,60,1.0,10.0,47,0.00,,---,0.00,816.00,VWS V14.01,2013-03-30 20:14:00,
2013-03-30 15:19:00,81.8,59.0,29.83,NNE,32,6.0,10.0,46,0.00,,---,0.00,809.00,VWS V14.01,2013-03-30 20:19:00,
2013-03-30 15:24:00,81.6,58.2,29.83,ENE,63,5.0,12.0,45,0.00,,---,0.00,805.00,VWS V14.01,2013-03-30 20:24:00,
2013-03-30 15:29:00,81.4,58.0,29.83,East,92,2.0,12.0,45,0.00,,---,0.00,779.00,VWS V14.01,2013-03-30 20:29:00,
2013-03-30 15:34:00,81.1,57.2,29.83,East,86,2.0,8.0,44,0.00,,---,0.00,802.00,VWS V14.01,2013-03-30 20:34:00,
2013-03-30 15:39:00,81.2,57.9,29.83,East,95,2.0,10.0,45,0.00,,---,0.00,782.00,VWS V14.01,2013-03-30 20:39:00,
2013-03-30 15:44:00,81.2,57.2,29.83,ENE,71,8.0,10.0,44,0.00,,---,0.00,770.00,VWS V14.01,2013-03-30 20:44:00,
2013-03-30 15:49:00,81.0,58.3,29.82,East,83,7.0,10.0,46,0.00,,---,0.00,759.00,VWS V14.01,2013-03-30 20:49:00,
2013-03-30 15:54:00,81.0,58.3,29.82,East,87,0.0,10.0,46,0.00,,---,0.00,745.00,VWS V14.01,2013-03-30 20:54:00,
2013-03-30 15:59:00,81.7,58.3,29.82,East,88,1.0,10.0,45,0.00,,---,0.00,719.00,VWS V14.01,2013-03-30 20:59:00,
2013-03-30 16:04:00,81.6,57.6,29.82,SE,133,0.0,4.0,44,0.00,,---,0.00,733.00,VWS V14.01,2013-03-30 21:04:00,
2013-03-30 16:09:00,82.1,59.3,29.82,ESE,121,5.0,6.0,46,0.00,,---,0.00,710.00,VWS V14.01,2013-03-30 21:09:00,
2013-03-30 16:14:00,81.6,58.2,29.81,ESE,107,5.0,8.0,45,0.00,,---,0.00,698.00,VWS V14.01,2013-03-30 21:14:00,
2013-03-30 16:19:00,82.2,58.8,29.81,East,101,1.0,9.0,45,0.00,,---,0.00,680.00,VWS V14.01,2013-03-30 21:19:00,
2013-03-30 16:24:00,81.8,57.1,29.80,ESE,122,7.0,9.0,43,0.00,,---,0.00,663.00,VWS V14.01,2013-03-30 21:24:00,
2013-03-30 16:29:00,81.4,56.8,29.81,ESE,122,1.0,9.0,43,0.00,,---,0.00,657.00,VWS V14.01,2013-03-30 21:29:00,
2013-03-30 16:34:00,82.0,57.3,29.80,East,93,6.0,10.0,43,0.00,,---,0.00,638.00,VWS V14.01,2013-03-30 21:34:00,
2013-03-30 16:39:00,81.6,57.0,29.80,ENE,74,0.0,10.0,43,0.00,,---,0.00,626.00,VWS V14.01,2013-03-30 21:39:00,
2013-03-30 16:44:00,81.9,57.9,29.80,ENE,61,0.0,10.0,44,0.00,,---,0.00,617.00,VWS V14.01,2013-03-30 21:44:00,
2013-03-30 16:49:00,82.1,58.0,29.80,ENE,61,4.0,10.0,44,0.00,,---,0.00,594.00,VWS V14.01,2013-03-30 21:49:00,
2013-03-30 16:54:00,82.0,59.2,29.80,ENE,69,2.0,11.0,46,0.00,,---,0.00,603.00,VWS V14.01,2013-03-30 21:54:00,
2013-03-30 16:59:00,81.7,58.9,29.80,East,83,0.0,11.0,46,0.00,,---,0.00,557.00,VWS V14.01,2013-03-30 21:59:00,
2013-03-30 17:04:00,81.3,58.0,29.80,ENE,74,0.0,11.0,45,0.00,,---,0.00,137.00,VWS V14.01,2013-03-30 22:04:00,
2013-03-30 17:09:00,80.7,58.6,29.80,ENE,75,0.0,11.0,47,0.00,,---,0.00,323.00,VWS V14.01,2013-03-30 22:09:00,
2013-03-30 17:14:00,81.1,59.0,29.80,ENE,76,0.0,11.0,47,0.00,,---,0.00,524.00,VWS V14.01,2013-03-30 22:14:00,
2013-03-30 17:19:00,81.4,59.3,29.80,ESE,102,0.0,11.0,47,0.00,,---,0.00,471.00,VWS V14.01,2013-03-30 22:19:00,
2013-03-30 17:24:00,81.5,58.8,29.80,East,101,0.0,11.0,46,0.00,,---,0.00,485.00,VWS V14.01,2013-03-30 22:24:00,
2013-03-30 17:29:00,81.5,58.8,29.80,East,80,0.0,11.0,46,0.00,,---,0.00,478.00,VWS V14.01,2013-03-30 22:29:00,
2013-03-30 17:34:00,81.9,59.1,29.81,East,80,9.0,9.0,46,0.00,,---,0.00,443.00,VWS V14.01,2013-03-30 22:34:00,
2013-03-30 17:39:00,81.5,58.8,29.81,East,91,6.0,10.0,46,0.00,,---,0.00,417.00,VWS V14.01,2013-03-30 22:39:00,
2013-03-30 17:44:00,81.2,58.5,29.80,East,86,6.0,10.0,46,0.00,,---,0.00,422.00,VWS V14.01,2013-03-30 22:44:00,
2013-03-30 17:49:00,81.4,58.7,29.80,East,85,0.0,10.0,46,0.00,,---,0.00,392.00,VWS V14.01,2013-03-30 22:49:00,
2013-03-30 17:54:00,81.2,58.5,29.80,East,84,2.0,10.0,46,0.00,,---,0.00,366.00,VWS V14.01,2013-03-30 22:54:00,
2013-03-30 17:59:00,81.1,58.4,29.81,East,84,6.0,10.0,46,0.00,,---,0.00,329.00,VWS V14.01,2013-03-30 22:59:00,
2013-03-30 18:04:00,81.0,58.9,29.80,East,84,2.0,7.0,47,0.00,,---,0.00,297.00,VWS V14.01,2013-03-30 23:04:00,
2013-03-30 18:09:00,80.9,58.8,29.80,East,84,0.0,8.0,47,0.00,,---,0.00,301.00,VWS V14.01,2013-03-30 23:09:00,
2013-03-30 18:14:00,80.9,58.2,29.80,East,85,1.0,8.0,46,0.00,,---,0.00,294.00,VWS V14.01,2013-03-30 23:14:00,
2013-03-30 18:19:00,80.9,57.6,29.79,East,86,0.0,8.0,45,0.00,,---,0.00,287.00,VWS V14.01,2013-03-30 23:19:00,
2013-03-30 18:24:00,80.8,58.1,29.80,East,85,0.0,8.0,46,0.00,,---,0.00,251.00,VWS V14.01,2013-03-30 23:24:00,
2013-03-30 18:29:00,80.5,57.2,29.80,East,86,2.0,8.0,45,0.00,,---,0.00,171.00,VWS V14.01,2013-03-30 23:29:00,
2013-03-30 18:34:00,80.2,57.6,29.80,East,86,0.0,0.0,46,0.00,,---,0.00,186.00,VWS V14.01,2013-03-30 23:34:00,
2013-03-30 18:39:00,80.3,57.7,29.79,East,86,0.0,0.0,46,0.00,,---,0.00,158.00,VWS V14.01,2013-03-30 23:39:00,
2013-03-30 18:44:00,80.1,57.5,29.79,East,86,1.0,8.0,46,0.00,,---,0.00,125.00,VWS V14.01,2013-03-30 23:44:00,
2013-03-30 18:49:00,79.8,57.8,29.79,East,86,2.0,8.0,47,0.00,,---,0.00,95.00,VWS V14.01,2013-03-30 23:49:00,
2013-03-30 18:54:00,79.5,57.5,29.79,East,86,1.0,8.0,47,0.00,,---,0.00,58.00,VWS V14.01,2013-03-30 23:54:00,
2013-03-30 18:59:00,79.1,57.2,29.80,East,86,0.0,8.0,47,0.00,,---,0.00,56.00,VWS V14.01,2013-03-30 23:59:00,
2013-03-30 19:04:00,78.8,57.5,29.80,East,86,0.0,2.0,48,0.00,,---,0.00,49.00,VWS V14.01,2013-03-31 00:04:00,
2013-03-30 19:09:00,78.4,57.7,29.80,East,86,0.0,2.0,49,0.00,,---,0.00,49.00,VWS V14.01,2013-03-31 00:09:00,
2013-03-30 19:14:00,78.1,58.0,29.80,East,86,0.0,2.0,50,0.00,,---,0.00,58.00,VWS V14.01,2013-03-31 00:14:00,
2013-03-30 19:19:00,77.8,57.7,29.80,East,86,0.0,2.0,50,0.00,,---,0.00,62.00,VWS V14.01,2013-03-31 00:19:00,
2013-03-30 19:24:00,77.4,57.9,29.80,East,86,0.0,2.0,51,0.00,,---,0.00,49.00,VWS V14.01,2013-03-31 00:24:00,
2013-03-30 19:29:00,77.3,57.8,29.80,East,86,0.0,2.0,51,0.00,,---,0.00,44.00,VWS V14.01,2013-03-31 00:29:00,
2013-03-30 19:34:00,77.0,58.0,29.80,East,86,0.0,0.0,52,0.00,,---,0.00,40.00,VWS V14.01,2013-03-31 00:34:00,
2013-03-30 19:39:00,76.5,58.1,29.80,East,86,0.0,0.0,53,0.00,,---,0.00,35.00,VWS V14.01,2013-03-31 00:39:00,
2013-03-30 19:44:00,76.2,57.8,29.80,East,86,0.0,0.0,53,0.00,,---,0.00,28.00,VWS V14.01,2013-03-31 00:44:00,
2013-03-30 19:49:00,76.1,57.8,29.80,East,86,0.0,0.0,53,0.00,,---,0.00,16.00,VWS V14.01,2013-03-31 00:49:00,
2013-03-30 19:54:00,75.8,58.0,29.80,East,86,0.0,0.0,54,0.00,,---,0.00,7.00,VWS V14.01,2013-03-31 00:54:00,
2013-03-30 19:59:00,75.2,58.4,29.81,East,86,0.0,0.0,56,0.00,,---,0.00,0.00,VWS V14.01,2013-03-31 00:59:00,
2013-03-30 20:04:00,74.5,58.3,29.81,East,86,0.0,0.0,57,0.00,,---,0.00,0.00,VWS V14.01,2013-03-31 01:04:00,
2013-03-30 20:09:00,73.8,58.1,29.81,East,86,0.0,0.0,58,0.00,,---,0.00,0.00,VWS V14.01,2013-03-31 01:09:00,
2013-03-30 20:14:00,73.2,58.0,29.82,East,86,0.0,0.0,59,0.00,,---,0.00,0.00,VWS V14.01,2013-03-31 01:14:00,
2013-03-30 20:19:00,72.6,58.4,29.82,East,86,0.0,0.0,61,0.00,,---,0.00,0.00,VWS V14.01,2013-03-31 01:19:00,
2013-03-30 20:24:00,71.8,58.1,29.82,East,86,0.0,0.0,62,0.00,,---,0.00,0.00,VWS V14.01,2013-03-31 01:24:00,
2013-03-30 20:29:00,71.4,58.2,29.82,East,86,0.0,0.0,63,0.00,,---,0.00,0.00,VWS V14.01,2013-03-31 01:29:00,
2013-03-30 20:34:00,71.5,58.3,29.82,East,86,0.0,0.0,63,0.00,,---,0.00,0.00,VWS V14.01,2013-03-31 01:34:00,
2013-03-30 20:39:00,71.9,58.6,29.82,East,86,0.0,0.0,63,0.00,,---,0.00,0.00,VWS V14.01,2013-03-31 01:39:00,
2013-03-30 20:44:00,71.2,58.0,29.82,East,86,0.0,0.0,63,0.00,,---,0.00,0.00,VWS V14.01,2013-03-31 01:44:00,
2013-03-30 20:49:00,70.8,58.0,29.82,East,86,0.0,0.0,64,0.00,,---,0.00,0.00,VWS V14.01,2013-03-31 01:49:00,
2013-03-30 20:54:00,70.2,57.9,29.82,East,86,0.0,0.0,65,0.00,,---,0.00,0.00,VWS V14.01,2013-03-31 01:54:00,
2013-03-30 20:59:00,69.7,57.8,29.82,East,86,0.0,0.0,66,0.00,,---,0.00,0.00,VWS V14.01,2013-03-31 01:59:00,
2013-03-30 21:04:00,69.3,57.9,29.82,East,86,0.0,0.0,67,0.00,,---,0.00,0.00,VWS V14.01,2013-03-31 02:04:00,
2013-03-30 21:09:00,68.7,57.7,29.83,East,86,0.0,0.0,68,0.00,,---,0.00,0.00,VWS V14.01,2013-03-31 02:09:00,
2013-03-30 21:14:00,68.4,57.4,29.83,East,86,0.0,0.0,68,0.00,,---,0.00,0.00,VWS V14.01,2013-03-31 02:14:00,
2013-03-30 21:19:00,67.5,57.0,29.83,East,86,0.0,0.0,69,0.00,,---,0.00,0.00,VWS V14.01,2013-03-31 02:19:00,
2013-03-30 21:24:00,66.7,57.0,29.83,East,86,0.0,0.0,71,0.00,,---,0.00,0.00,VWS V14.01,2013-03-31 02:24:00,
2013-03-30 21:29:00,66.1,56.4,29.83,East,86,0.0,0.0,71,0.00,,---,0.00,0.00,VWS V14.01,2013-03-31 02:29:00,
2013-03-30 21:34:00,65.5,56.2,29.83,East,86,0.0,0.0,72,0.00,,---,0.00,0.00,VWS V14.01,2013-03-31 02:34:00,
2013-03-30 21:39:00,67.2,57.5,29.83,East,86,0.0,5.0,71,0.00,,---,0.00,0.00,VWS V14.01,2013-03-31 02:39:00,
2013-03-30 21:44:00,68.9,58.3,29.83,East,86,7.0,8.0,69,0.00,,---,0.00,0.00,VWS V14.01,2013-03-31 02:44:00,
2013-03-30 21:49:00,69.7,58.7,29.83,East,86,2.0,8.0,68,0.00,,---,0.00,0.00,VWS V14.01,2013-03-31 02:49:00,
2013-03-30 21:54:00,69.8,58.8,29.83,East,86,2.0,8.0,68,0.00,,---,0.00,0.00,VWS V14.01,2013-03-31 02:54:00,
2013-03-30 21:59:00,69.8,58.8,29.82,East,86,0.0,8.0,68,0.00,,---,0.00,0.00,VWS V14.01,2013-03-31 02:59:00,
2013-03-30 22:04:00,69.5,58.9,29.82,East,85,8.0,9.0,69,0.00,,---,0.00,0.00,VWS V14.01,2013-03-31 03:04:00,
2013-03-30 22:09:00,69.5,58.9,29.83,East,84,5.0,9.0,69,0.00,,---,0.00,0.00,VWS V14.01,2013-03-31 03:09:00,
2013-03-30 22:14:00,69.4,59.2,29.82,East,84,2.0,9.0,70,0.00,,---,0.00,0.00,VWS V14.01,2013-03-31 03:14:00,
2013-03-30 22:19:00,69.2,59.0,29.82,East,86,8.0,9.0,70,0.00,,---,0.00,0.00,VWS V14.01,2013-03-31 03:19:00,
2013-03-30 22:24:00,69.2,59.0,29.82,East,85,6.0,10.0,70,0.00,,---,0.00,0.00,VWS V14.01,2013-03-31 03:24:00,
2013-03-30 22:29:00,69.0,58.8,29.82,East,85,7.0,10.0,70,0.00,,---,0.00,0.00,VWS V14.01,2013-03-31 03:29:00,
2013-03-30 22:34:00,68.9,59.1,29.83,East,85,7.0,9.0,71,0.00,,---,0.00,0.00,VWS V14.01,2013-03-31 03:34:00,
2013-03-30 22:39:00,68.7,58.9,29.83,East,84,7.0,10.0,71,0.00,,---,0.00,0.00,VWS V14.01,2013-03-31 03:39:00,
2013-03-30 22:44:00,68.6,58.8,29.83,ENE,74,4.0,10.0,71,0.00,,---,0.00,0.00,VWS V14.01,2013-03-31 03:44:00,
2013-03-30 22:49:00,68.6,58.8,29.83,East,84,7.0,11.0,71,0.00,,---,0.00,0.00,VWS V14.01,2013-03-31 03:49:00,
2013-03-30 22:54:00,68.8,59.0,29.83,East,82,8.0,11.0,71,0.00,,---,0.00,0.00,VWS V14.01,2013-03-31 03:54:00,
2013-03-30 22:59:00,68.9,58.7,29.82,East,84,10.0,13.0,70,0.00,,---,0.00,0.00,VWS V14.01,2013-03-31 03:59:00,
2013-03-30 23:00:00,68.9,58.7,29.82,ENE,78,8.0,13.0,70,0.00,,---,0.00,0.00,VWS V14.01,2013-03-31 04:00:00,
2013-03-30 23:05:00,69.0,58.8,29.83,East,86,9.0,13.0,70,0.00,,---,0.00,0.00,VWS V14.01,2013-03-31 04:05:00,
2013-03-30 23:10:00,69.0,58.8,29.83,East,98,2.0,15.0,70,0.00,,---,0.00,0.00,VWS V14.01,2013-03-31 04:10:00,
2013-03-30 23:15:00,69.0,58.8,29.83,East,96,7.0,15.0,70,0.00,,---,0.00,0.00,VWS V14.01,2013-03-31 04:15:00,
2013-03-30 23:20:00,69.0,59.2,29.83,East,97,6.0,15.0,71,0.00,,---,0.00,0.00,VWS V14.01,2013-03-31 04:20:00,
2013-03-30 23:25:00,68.8,59.0,29.83,East,98,6.0,15.0,71,0.00,,---,0.00,0.00,VWS V14.01,2013-03-31 04:25:00,
2013-03-30 23:30:00,68.6,59.2,29.83,East,91,0.0,15.0,72,0.00,,---,0.00,0.00,VWS V14.01,2013-03-31 04:30:00,
2013-03-30 23:35:00,68.3,58.9,29.83,East,98,5.0,10.0,72,0.00,,---,0.00,0.00,VWS V14.01,2013-03-31 04:35:00,
2013-03-30 23:40:00,68.1,58.7,29.83,East,94,6.0,10.0,72,0.00,,---,0.00,0.00,VWS V14.01,2013-03-31 04:40:00,
2013-03-30 23:45:00,68.0,59.0,29.83,East,97,3.0,10.0,73,0.00,,---,0.00,0.00,VWS V14.01,2013-03-31 04:45:00,
2013-03-30 23:50:00,68.0,59.0,29.82,East,99,7.0,10.0,73,0.00,,---,0.00,0.00,VWS V14.01,2013-03-31 04:50:00,
2013-03-30 23:55:00,67.9,58.9,29.82,East,100,3.0,10.0,73,0.00,,---,0.00,0.00,VWS V14.01,2013-03-31 04:55:00,